sensor_id;sensor_type;location;lat;lon;timestamp;P1;durP1;ratioP1;P2;durP2;ratioP2
12124;SDS011;6126;57.908;16.490;2022-07-01T00:00:36;4.38;;;3.47;;
12124;SDS011;6126;57.908;16.490;2022-07-01T00:03:03;3.88;;;3.45;;
12124;SDS011;6126;57.908;16.490;2022-07-01T00:05:29;4.00;;;3.53;;
12124;SDS011;6126;57.908;16.490;2022-07-01T00:07:55;3.95;;;3.45;;
12124;SDS011;6126;57.908;16.490;2022-07-01T00:10:21;4.13;;;3.78;;
12124;SDS011;6126;57.908;16.490;2022-07-01T00:12:47;3.75;;;3.45;;
12124;SDS011;6126;57.908;16.490;2022-07-01T00:15:13;4.60;;;3.25;;
12124;SDS011;6126;57.908;16.490;2022-07-01T00:17:39;3.65;;;3.35;;
12124;SDS011;6126;57.908;16.490;2022-07-01T00:20:06;4.95;;;3.50;;
12124;SDS011;6126;57.908;16.490;2022-07-01T00:22:33;3.47;;;3.13;;
12124;SDS011;6126;57.908;16.490;2022-07-01T00:24:59;3.28;;;2.97;;
12124;SDS011;6126;57.908;16.490;2022-07-01T00:27:26;5.32;;;3.30;;
12124;SDS011;6126;57.908;16.490;2022-07-01T00:29:52;4.55;;;3.25;;
12124;SDS011;6126;57.908;16.490;2022-07-01T00:32:17;4.82;;;3.45;;
12124;SDS011;6126;57.908;16.490;2022-07-01T00:34:43;3.38;;;3.08;;
12124;SDS011;6126;57.908;16.490;2022-07-01T00:37:09;5.05;;;3.45;;
12124;SDS011;6126;57.908;16.490;2022-07-01T00:39:36;3.88;;;3.45;;
12124;SDS011;6126;57.908;16.490;2022-07-01T00:42:02;3.33;;;3.03;;
12124;SDS011;6126;57.908;16.490;2022-07-01T00:44:29;3.78;;;3.42;;
12124;SDS011;6126;57.908;16.490;2022-07-01T00:46:58;3.83;;;3.53;;
12124;SDS011;6126;57.908;16.490;2022-07-01T00:49:28;4.20;;;3.67;;
12124;SDS011;6126;57.908;16.490;2022-07-01T00:51:55;4.80;;;3.33;;
12124;SDS011;6126;57.908;16.490;2022-07-01T00:54:23;4.53;;;3.13;;
12124;SDS011;6126;57.908;16.490;2022-07-01T00:56:49;4.07;;;3.65;;
12124;SDS011;6126;57.908;16.490;2022-07-01T00:59:15;4.15;;;3.45;;
12124;SDS011;6126;57.908;16.490;2022-07-01T01:01:41;4.63;;;3.70;;
12124;SDS011;6126;57.908;16.490;2022-07-01T01:04:07;5.45;;;3.65;;
12124;SDS011;6126;57.908;16.490;2022-07-01T01:06:33;4.60;;;4.07;;
12124;SDS011;6126;57.908;16.490;2022-07-01T01:08:59;3.92;;;3.50;;
12124;SDS011;6126;57.908;16.490;2022-07-01T01:11:26;4.47;;;4.07;;
12124;SDS011;6126;57.908;16.490;2022-07-01T01:13:52;3.78;;;3.47;;
12124;SDS011;6126;57.908;16.490;2022-07-01T01:16:19;4.00;;;3.38;;
12124;SDS011;6126;57.908;16.490;2022-07-01T01:18:47;3.65;;;3.35;;
12124;SDS011;6126;57.908;16.490;2022-07-01T01:21:14;3.95;;;3.55;;
12124;SDS011;6126;57.908;16.490;2022-07-01T01:23:41;4.88;;;3.45;;
12124;SDS011;6126;57.908;16.490;2022-07-01T01:26:17;4.70;;;3.60;;
12124;SDS011;6126;57.908;16.490;2022-07-01T01:28:47;4.63;;;3.55;;
12124;SDS011;6126;57.908;16.490;2022-07-01T01:31:14;3.63;;;3.22;;
12124;SDS011;6126;57.908;16.490;2022-07-01T01:33:40;4.60;;;3.70;;
12124;SDS011;6126;57.908;16.490;2022-07-01T01:36:06;3.42;;;3.13;;
12124;SDS011;6126;57.908;16.490;2022-07-01T01:38:34;4.15;;;3.55;;
12124;SDS011;6126;57.908;16.490;2022-07-01T01:41:02;4.85;;;3.97;;
12124;SDS011;6126;57.908;16.490;2022-07-01T01:43:31;3.97;;;3.67;;
12124;SDS011;6126;57.908;16.490;2022-07-01T01:46:00;3.70;;;3.25;;
12124;SDS011;6126;57.908;16.490;2022-07-01T01:48:28;4.43;;;3.50;;
12124;SDS011;6126;57.908;16.490;2022-07-01T01:50:55;4.38;;;3.85;;
12124;SDS011;6126;57.908;16.490;2022-07-01T01:53:21;4.93;;;3.35;;
12124;SDS011;6126;57.908;16.490;2022-07-01T01:55:47;4.35;;;3.70;;
12124;SDS011;6126;57.908;16.490;2022-07-01T01:58:13;5.05;;;4.22;;
12124;SDS011;6126;57.908;16.490;2022-07-01T02:00:39;3.95;;;3.60;;
12124;SDS011;6126;57.908;16.490;2022-07-01T02:03:05;4.20;;;3.80;;
12124;SDS011;6126;57.908;16.490;2022-07-01T02:05:31;4.05;;;3.65;;
12124;SDS011;6126;57.908;16.490;2022-07-01T02:07:57;3.45;;;3.10;;
12124;SDS011;6126;57.908;16.490;2022-07-01T02:10:23;3.42;;;3.10;;
12124;SDS011;6126;57.908;16.490;2022-07-01T02:12:49;3.40;;;2.88;;
12124;SDS011;6126;57.908;16.490;2022-07-01T02:15:15;3.65;;;3.35;;
12124;SDS011;6126;57.908;16.490;2022-07-01T02:17:41;5.00;;;4.03;;
12124;SDS011;6126;57.908;16.490;2022-07-01T02:20:07;5.10;;;3.72;;
12124;SDS011;6126;57.908;16.490;2022-07-01T02:22:34;4.20;;;3.80;;
12124;SDS011;6126;57.908;16.490;2022-07-01T02:24:59;4.32;;;3.90;;
12124;SDS011;6126;57.908;16.490;2022-07-01T02:27:25;3.55;;;3.25;;
12124;SDS011;6126;57.908;16.490;2022-07-01T02:29:51;4.03;;;3.63;;
12124;SDS011;6126;57.908;16.490;2022-07-01T02:32:17;4.50;;;3.47;;
12124;SDS011;6126;57.908;16.490;2022-07-01T02:34:44;3.97;;;3.50;;
12124;SDS011;6126;57.908;16.490;2022-07-01T02:37:09;6.78;;;3.90;;
12124;SDS011;6126;57.908;16.490;2022-07-01T02:39:35;4.60;;;3.97;;
12124;SDS011;6126;57.908;16.490;2022-07-01T02:42:01;5.05;;;4.32;;
12124;SDS011;6126;57.908;16.490;2022-07-01T02:44:46;3.92;;;3.45;;
12124;SDS011;6126;57.908;16.490;2022-07-01T02:47:12;3.97;;;3.58;;
12124;SDS011;6126;57.908;16.490;2022-07-01T02:49:38;4.32;;;3.92;;
12124;SDS011;6126;57.908;16.490;2022-07-01T02:52:04;4.15;;;3.78;;
12124;SDS011;6126;57.908;16.490;2022-07-01T02:54:31;4.53;;;4.15;;
12124;SDS011;6126;57.908;16.490;2022-07-01T02:56:56;4.70;;;3.95;;
12124;SDS011;6126;57.908;16.490;2022-07-01T02:59:22;3.75;;;3.45;;
12124;SDS011;6126;57.908;16.490;2022-07-01T03:01:48;4.72;;;4.18;;
12124;SDS011;6126;57.908;16.490;2022-07-01T03:04:14;4.22;;;3.67;;
12124;SDS011;6126;57.908;16.490;2022-07-01T03:06:40;5.53;;;4.07;;
12124;SDS011;6126;57.908;16.490;2022-07-01T03:09:06;5.43;;;3.78;;
12124;SDS011;6126;57.908;16.490;2022-07-01T03:11:32;5.13;;;3.80;;
12124;SDS011;6126;57.908;16.490;2022-07-01T03:13:58;5.22;;;3.92;;
12124;SDS011;6126;57.908;16.490;2022-07-01T03:16:24;4.10;;;3.70;;
12124;SDS011;6126;57.908;16.490;2022-07-01T03:18:50;5.32;;;3.90;;
12124;SDS011;6126;57.908;16.490;2022-07-01T03:21:16;6.53;;;3.85;;
12124;SDS011;6126;57.908;16.490;2022-07-01T03:23:41;4.40;;;3.50;;
12124;SDS011;6126;57.908;16.490;2022-07-01T03:26:07;4.28;;;3.85;;
12124;SDS011;6126;57.908;16.490;2022-07-01T03:28:33;7.40;;;3.97;;
12124;SDS011;6126;57.908;16.490;2022-07-01T03:30:59;4.13;;;3.80;;
12124;SDS011;6126;57.908;16.490;2022-07-01T03:33:26;3.88;;;3.58;;
12124;SDS011;6126;57.908;16.490;2022-07-01T03:35:53;5.60;;;3.88;;
12124;SDS011;6126;57.908;16.490;2022-07-01T03:38:18;4.38;;;3.88;;
12124;SDS011;6126;57.908;16.490;2022-07-01T03:40:44;4.25;;;3.83;;
12124;SDS011;6126;57.908;16.490;2022-07-01T03:43:10;4.65;;;4.18;;
12124;SDS011;6126;57.908;16.490;2022-07-01T03:45:36;5.10;;;3.78;;
12124;SDS011;6126;57.908;16.490;2022-07-01T03:48:02;4.10;;;3.67;;
12124;SDS011;6126;57.908;16.490;2022-07-01T03:50:28;4.20;;;3.65;;
12124;SDS011;6126;57.908;16.490;2022-07-01T03:52:54;4.43;;;3.95;;
12124;SDS011;6126;57.908;16.490;2022-07-01T03:55:38;4.18;;;3.60;;
12124;SDS011;6126;57.908;16.490;2022-07-01T03:58:04;4.43;;;3.83;;
12124;SDS011;6126;57.908;16.490;2022-07-01T04:00:34;4.82;;;3.88;;
12124;SDS011;6126;57.908;16.490;2022-07-01T04:03:03;4.10;;;3.75;;
12124;SDS011;6126;57.908;16.490;2022-07-01T04:05:34;6.93;;;4.20;;
12124;SDS011;6126;57.908;16.490;2022-07-01T04:08:05;5.22;;;4.43;;
12124;SDS011;6126;57.908;16.490;2022-07-01T04:10:33;7.15;;;4.13;;
12124;SDS011;6126;57.908;16.490;2022-07-01T04:13:00;4.70;;;4.30;;
12124;SDS011;6126;57.908;16.490;2022-07-01T04:15:28;5.78;;;4.50;;
12124;SDS011;6126;57.908;16.490;2022-07-01T04:17:55;5.20;;;4.70;;
12124;SDS011;6126;57.908;16.490;2022-07-01T04:20:21;4.28;;;3.88;;
12124;SDS011;6126;57.908;16.490;2022-07-01T04:22:47;4.75;;;4.35;;
12124;SDS011;6126;57.908;16.490;2022-07-01T04:25:13;5.68;;;4.68;;
12124;SDS011;6126;57.908;16.490;2022-07-01T04:27:39;5.93;;;5.00;;
12124;SDS011;6126;57.908;16.490;2022-07-01T04:30:06;5.75;;;4.68;;
12124;SDS011;6126;57.908;16.490;2022-07-01T04:32:33;5.95;;;4.82;;
12124;SDS011;6126;57.908;16.490;2022-07-01T04:34:59;5.75;;;5.10;;
12124;SDS011;6126;57.908;16.490;2022-07-01T04:37:25;6.03;;;5.35;;
12124;SDS011;6126;57.908;16.490;2022-07-01T04:39:50;5.53;;;4.93;;
12124;SDS011;6126;57.908;16.490;2022-07-01T04:42:16;5.47;;;4.78;;
12124;SDS011;6126;57.908;16.490;2022-07-01T04:44:45;5.22;;;4.72;;
12124;SDS011;6126;57.908;16.490;2022-07-01T04:47:11;5.18;;;4.45;;
12124;SDS011;6126;57.908;16.490;2022-07-01T04:49:37;6.30;;;5.13;;
12124;SDS011;6126;57.908;16.490;2022-07-01T04:52:03;6.05;;;5.20;;
12124;SDS011;6126;57.908;16.490;2022-07-01T04:54:29;5.75;;;5.22;;
12124;SDS011;6126;57.908;16.490;2022-07-01T04:56:55;5.80;;;4.82;;
12124;SDS011;6126;57.908;16.490;2022-07-01T04:59:21;5.25;;;4.55;;
12124;SDS011;6126;57.908;16.490;2022-07-01T05:01:47;6.60;;;5.22;;
12124;SDS011;6126;57.908;16.490;2022-07-01T05:04:17;4.97;;;4.30;;
12124;SDS011;6126;57.908;16.490;2022-07-01T05:06:44;5.57;;;5.07;;
12124;SDS011;6126;57.908;16.490;2022-07-01T05:09:10;5.45;;;4.95;;
12124;SDS011;6126;57.908;16.490;2022-07-01T05:11:38;6.60;;;5.13;;
12124;SDS011;6126;57.908;16.490;2022-07-01T05:14:04;6.43;;;4.85;;
12124;SDS011;6126;57.908;16.490;2022-07-01T05:16:31;5.18;;;4.65;;
12124;SDS011;6126;57.908;16.490;2022-07-01T05:18:58;5.22;;;4.35;;
12124;SDS011;6126;57.908;16.490;2022-07-01T05:21:43;4.85;;;4.45;;
12124;SDS011;6126;57.908;16.490;2022-07-01T05:24:21;5.22;;;4.63;;
12124;SDS011;6126;57.908;16.490;2022-07-01T05:26:52;4.75;;;4.35;;
12124;SDS011;6126;57.908;16.490;2022-07-01T05:29:18;5.65;;;4.05;;
12124;SDS011;6126;57.908;16.490;2022-07-01T05:31:44;4.88;;;4.40;;
12124;SDS011;6126;57.908;16.490;2022-07-01T05:34:10;5.03;;;4.60;;
12124;SDS011;6126;57.908;16.490;2022-07-01T05:36:36;4.80;;;4.40;;
12124;SDS011;6126;57.908;16.490;2022-07-01T05:39:02;4.60;;;4.20;;
12124;SDS011;6126;57.908;16.490;2022-07-01T05:41:28;5.63;;;4.65;;
12124;SDS011;6126;57.908;16.490;2022-07-01T05:43:54;5.80;;;4.28;;
12124;SDS011;6126;57.908;16.490;2022-07-01T05:46:20;4.40;;;3.80;;
12124;SDS011;6126;57.908;16.490;2022-07-01T05:48:46;4.40;;;3.85;;
12124;SDS011;6126;57.908;16.490;2022-07-01T05:51:12;5.22;;;3.78;;
12124;SDS011;6126;57.908;16.490;2022-07-01T05:53:38;4.22;;;3.83;;
12124;SDS011;6126;57.908;16.490;2022-07-01T05:56:04;4.35;;;3.95;;
12124;SDS011;6126;57.908;16.490;2022-07-01T05:58:30;4.10;;;3.78;;
12124;SDS011;6126;57.908;16.490;2022-07-01T06:00:56;5.82;;;3.83;;
12124;SDS011;6126;57.908;16.490;2022-07-01T06:03:22;4.43;;;4.03;;
12124;SDS011;6126;57.908;16.490;2022-07-01T06:05:48;4.10;;;3.70;;
12124;SDS011;6126;57.908;16.490;2022-07-01T06:08:14;4.55;;;3.17;;
12124;SDS011;6126;57.908;16.490;2022-07-01T06:10:40;3.50;;;3.20;;
12124;SDS011;6126;57.908;16.490;2022-07-01T06:13:06;4.05;;;3.67;;
12124;SDS011;6126;57.908;16.490;2022-07-01T06:15:31;3.58;;;3.28;;
12124;SDS011;6126;57.908;16.490;2022-07-01T06:17:58;6.38;;;3.22;;
12124;SDS011;6126;57.908;16.490;2022-07-01T06:20:24;4.55;;;3.80;;
12124;SDS011;6126;57.908;16.490;2022-07-01T06:22:50;4.82;;;3.65;;
12124;SDS011;6126;57.908;16.490;2022-07-01T06:25:15;4.18;;;3.78;;
12124;SDS011;6126;57.908;16.490;2022-07-01T06:27:42;4.30;;;3.50;;
12124;SDS011;6126;57.908;16.490;2022-07-01T06:30:10;3.70;;;3.15;;
12124;SDS011;6126;57.908;16.490;2022-07-01T06:32:37;3.60;;;2.80;;
12124;SDS011;6126;57.908;16.490;2022-07-01T06:35:04;3.92;;;3.25;;
12124;SDS011;6126;57.908;16.490;2022-07-01T06:37:31;4.05;;;3.05;;
12124;SDS011;6126;57.908;16.490;2022-07-01T06:39:59;4.45;;;3.63;;
12124;SDS011;6126;57.908;16.490;2022-07-01T06:42:26;4.20;;;3.58;;
12124;SDS011;6126;57.908;16.490;2022-07-01T06:44:52;4.28;;;3.70;;
12124;SDS011;6126;57.908;16.490;2022-07-01T06:47:18;3.88;;;3.47;;
12124;SDS011;6126;57.908;16.490;2022-07-01T06:49:44;4.28;;;3.72;;
12124;SDS011;6126;57.908;16.490;2022-07-01T06:52:10;4.00;;;3.60;;
12124;SDS011;6126;57.908;16.490;2022-07-01T06:54:36;4.20;;;3.25;;
12124;SDS011;6126;57.908;16.490;2022-07-01T06:57:03;3.85;;;3.47;;
12124;SDS011;6126;57.908;16.490;2022-07-01T06:59:29;4.30;;;3.90;;
12124;SDS011;6126;57.908;16.490;2022-07-01T07:01:56;3.97;;;3.67;;
12124;SDS011;6126;57.908;16.490;2022-07-01T07:04:21;4.25;;;3.83;;
12124;SDS011;6126;57.908;16.490;2022-07-01T07:06:47;5.93;;;3.63;;
12124;SDS011;6126;57.908;16.490;2022-07-01T07:09:13;3.60;;;3.30;;
12124;SDS011;6126;57.908;16.490;2022-07-01T07:11:39;3.53;;;3.22;;
12124;SDS011;6126;57.908;16.490;2022-07-01T07:14:05;4.15;;;3.75;;
12124;SDS011;6126;57.908;16.490;2022-07-01T07:16:31;3.90;;;3.55;;
12124;SDS011;6126;57.908;16.490;2022-07-01T07:18:57;4.82;;;3.72;;
12124;SDS011;6126;57.908;16.490;2022-07-01T07:21:23;4.25;;;3.50;;
12124;SDS011;6126;57.908;16.490;2022-07-01T07:23:49;4.30;;;3.90;;
12124;SDS011;6126;57.908;16.490;2022-07-01T07:26:15;3.78;;;3.45;;
12124;SDS011;6126;57.908;16.490;2022-07-01T07:28:41;3.63;;;3.33;;
12124;SDS011;6126;57.908;16.490;2022-07-01T07:31:07;5.00;;;3.83;;
12124;SDS011;6126;57.908;16.490;2022-07-01T07:33:33;3.92;;;3.58;;
12124;SDS011;6126;57.908;16.490;2022-07-01T07:35:59;3.83;;;3.45;;
12124;SDS011;6126;57.908;16.490;2022-07-01T07:38:25;4.47;;;3.78;;
12124;SDS011;6126;57.908;16.490;2022-07-01T07:40:51;4.45;;;3.85;;
12124;SDS011;6126;57.908;16.490;2022-07-01T07:43:16;4.65;;;4.15;;
12124;SDS011;6126;57.908;16.490;2022-07-01T07:45:42;4.93;;;4.10;;
12124;SDS011;6126;57.908;16.490;2022-07-01T07:48:08;5.13;;;3.85;;
12124;SDS011;6126;57.908;16.490;2022-07-01T07:50:34;4.50;;;4.10;;
12124;SDS011;6126;57.908;16.490;2022-07-01T07:53:01;6.40;;;4.18;;
12124;SDS011;6126;57.908;16.490;2022-07-01T07:55:27;4.45;;;3.90;;
12124;SDS011;6126;57.908;16.490;2022-07-01T07:57:53;5.30;;;3.80;;
12124;SDS011;6126;57.908;16.490;2022-07-01T08:00:19;5.15;;;4.13;;
12124;SDS011;6126;57.908;16.490;2022-07-01T08:02:46;4.18;;;3.60;;
12124;SDS011;6126;57.908;16.490;2022-07-01T08:05:11;4.60;;;4.07;;
12124;SDS011;6126;57.908;16.490;2022-07-01T08:07:38;5.22;;;3.85;;
12124;SDS011;6126;57.908;16.490;2022-07-01T08:10:08;5.90;;;4.43;;
12124;SDS011;6126;57.908;16.490;2022-07-01T08:12:37;4.75;;;4.32;;
12124;SDS011;6126;57.908;16.490;2022-07-01T08:15:04;5.35;;;4.85;;
12124;SDS011;6126;57.908;16.490;2022-07-01T08:17:31;4.80;;;4.40;;
12124;SDS011;6126;57.908;16.490;2022-07-01T08:19:57;5.30;;;4.80;;
12124;SDS011;6126;57.908;16.490;2022-07-01T08:22:23;5.00;;;4.05;;
12124;SDS011;6126;57.908;16.490;2022-07-01T08:24:49;4.15;;;3.85;;
12124;SDS011;6126;57.908;16.490;2022-07-01T08:27:15;4.20;;;3.80;;
12124;SDS011;6126;57.908;16.490;2022-07-01T08:29:41;4.30;;;4.00;;
12124;SDS011;6126;57.908;16.490;2022-07-01T08:32:07;4.68;;;4.10;;
12124;SDS011;6126;57.908;16.490;2022-07-01T08:34:34;5.50;;;4.10;;
12124;SDS011;6126;57.908;16.490;2022-07-01T08:37:01;3.67;;;3.35;;
12124;SDS011;6126;57.908;16.490;2022-07-01T08:39:28;4.53;;;4.13;;
12124;SDS011;6126;57.908;16.490;2022-07-01T08:41:54;4.53;;;4.05;;
12124;SDS011;6126;57.908;16.490;2022-07-01T08:44:21;3.55;;;3.25;;
12124;SDS011;6126;57.908;16.490;2022-07-01T08:46:48;4.22;;;3.72;;
12124;SDS011;6126;57.908;16.490;2022-07-01T08:49:15;4.55;;;4.07;;
12124;SDS011;6126;57.908;16.490;2022-07-01T08:51:42;4.53;;;4.13;;
12124;SDS011;6126;57.908;16.490;2022-07-01T08:54:08;4.22;;;3.47;;
12124;SDS011;6126;57.908;16.490;2022-07-01T08:56:34;5.20;;;3.85;;
12124;SDS011;6126;57.908;16.490;2022-07-01T08:59:05;4.32;;;3.78;;
12124;SDS011;6126;57.908;16.490;2022-07-01T09:01:36;3.90;;;3.50;;
12124;SDS011;6126;57.908;16.490;2022-07-01T09:04:16;4.05;;;3.58;;
12124;SDS011;6126;57.908;16.490;2022-07-01T09:06:45;4.70;;;3.63;;
12124;SDS011;6126;57.908;16.490;2022-07-01T09:09:14;3.83;;;3.53;;
12124;SDS011;6126;57.908;16.490;2022-07-01T09:11:54;3.92;;;3.55;;
12124;SDS011;6126;57.908;16.490;2022-07-01T09:14:21;3.35;;;3.05;;
12124;SDS011;6126;57.908;16.490;2022-07-01T09:16:56;3.90;;;3.55;;
12124;SDS011;6126;57.908;16.490;2022-07-01T09:19:29;3.60;;;3.28;;
12124;SDS011;6126;57.908;16.490;2022-07-01T09:22:01;4.05;;;3.30;;
12124;SDS011;6126;57.908;16.490;2022-07-01T09:29:49;3.10;;;2.88;;
12124;SDS011;6126;57.908;16.490;2022-07-01T09:32:17;4.78;;;3.42;;
12124;SDS011;6126;57.908;16.490;2022-07-01T09:37:20;4.00;;;3.38;;
12124;SDS011;6126;57.908;16.490;2022-07-01T09:39:49;3.42;;;2.97;;
12124;SDS011;6126;57.908;16.490;2022-07-01T09:42:21;4.95;;;2.83;;
12124;SDS011;6126;57.908;16.490;2022-07-01T09:44:56;3.25;;;3.00;;
12124;SDS011;6126;57.908;16.490;2022-07-01T09:47:30;3.40;;;3.17;;
12124;SDS011;6126;57.908;16.490;2022-07-01T09:49:58;3.67;;;3.38;;
12124;SDS011;6126;57.908;16.490;2022-07-01T09:52:26;4.30;;;3.15;;
12124;SDS011;6126;57.908;16.490;2022-07-01T09:54:53;3.22;;;2.95;;
12124;SDS011;6126;57.908;16.490;2022-07-01T09:57:19;3.80;;;3.50;;
12124;SDS011;6126;57.908;16.490;2022-07-01T09:59:50;3.35;;;3.05;;
12124;SDS011;6126;57.908;16.490;2022-07-01T10:02:20;3.17;;;2.97;;
12124;SDS011;6126;57.908;16.490;2022-07-01T10:04:54;4.35;;;3.45;;
12124;SDS011;6126;57.908;16.490;2022-07-01T10:07:45;4.15;;;3.85;;
12124;SDS011;6126;57.908;16.490;2022-07-01T10:14:08;3.25;;;3.05;;
12124;SDS011;6126;57.908;16.490;2022-07-01T10:16:37;4.40;;;3.67;;
12124;SDS011;6126;57.908;16.490;2022-07-01T10:19:46;3.85;;;3.42;;
12124;SDS011;6126;57.908;16.490;2022-07-01T10:21:59;4.43;;;3.10;;
12124;SDS011;6126;57.908;16.490;2022-07-01T10:24:50;3.42;;;3.13;;
12124;SDS011;6126;57.908;16.490;2022-07-01T10:27:22;3.67;;;2.92;;
12124;SDS011;6126;57.908;16.490;2022-07-01T10:32:46;3.80;;;3.28;;
12124;SDS011;6126;57.908;16.490;2022-07-01T10:35:13;3.35;;;3.05;;
12124;SDS011;6126;57.908;16.490;2022-07-01T10:38:22;3.72;;;3.28;;
12124;SDS011;6126;57.908;16.490;2022-07-01T10:40:39;3.55;;;3.33;;
12124;SDS011;6126;57.908;16.490;2022-07-01T10:43:11;3.90;;;3.05;;
12124;SDS011;6126;57.908;16.490;2022-07-01T10:45:45;4.13;;;3.40;;
12124;SDS011;6126;57.908;16.490;2022-07-01T10:48:21;4.95;;;3.15;;
12124;SDS011;6126;57.908;16.490;2022-07-01T10:50:49;3.45;;;2.85;;
12124;SDS011;6126;57.908;16.490;2022-07-01T10:53:17;3.58;;;3.20;;
12124;SDS011;6126;57.908;16.490;2022-07-01T10:55:45;3.72;;;3.42;;
12124;SDS011;6126;57.908;16.490;2022-07-01T10:58:14;4.30;;;3.65;;
12124;SDS011;6126;57.908;16.490;2022-07-01T11:00:43;3.55;;;3.25;;
12124;SDS011;6126;57.908;16.490;2022-07-01T11:03:16;3.42;;;3.13;;
12124;SDS011;6126;57.908;16.490;2022-07-01T11:05:46;3.63;;;3.17;;
12124;SDS011;6126;57.908;16.490;2022-07-01T11:08:16;3.55;;;3.22;;
12124;SDS011;6126;57.908;16.490;2022-07-01T11:10:43;3.58;;;3.28;;
12124;SDS011;6126;57.908;16.490;2022-07-01T11:13:12;5.45;;;3.80;;
12124;SDS011;6126;57.908;16.490;2022-07-01T11:15:40;4.38;;;3.22;;
12124;SDS011;6126;57.908;16.490;2022-07-01T11:18:07;4.65;;;3.65;;
12124;SDS011;6126;57.908;16.490;2022-07-01T11:20:33;3.80;;;3.50;;
12124;SDS011;6126;57.908;16.490;2022-07-01T11:22:59;3.83;;;3.47;;
12124;SDS011;6126;57.908;16.490;2022-07-01T11:25:25;3.70;;;3.40;;
12124;SDS011;6126;57.908;16.490;2022-07-01T11:27:52;4.13;;;3.72;;
12124;SDS011;6126;57.908;16.490;2022-07-01T11:30:19;3.97;;;3.58;;
12124;SDS011;6126;57.908;16.490;2022-07-01T11:32:48;3.65;;;3.35;;
12124;SDS011;6126;57.908;16.490;2022-07-01T11:35:20;3.80;;;3.50;;
12124;SDS011;6126;57.908;16.490;2022-07-01T11:38:15;3.65;;;3.35;;
12124;SDS011;6126;57.908;16.490;2022-07-01T11:41:02;3.67;;;3.33;;
12124;SDS011;6126;57.908;16.490;2022-07-01T11:43:32;3.10;;;2.85;;
12124;SDS011;6126;57.908;16.490;2022-07-01T11:46:02;3.97;;;3.67;;
12124;SDS011;6126;57.908;16.490;2022-07-01T11:48:32;4.63;;;3.03;;
12124;SDS011;6126;57.908;16.490;2022-07-01T11:51:21;4.40;;;4.00;;
12124;SDS011;6126;57.908;16.490;2022-07-01T11:53:52;3.40;;;3.20;;
12124;SDS011;6126;57.908;16.490;2022-07-01T11:56:33;3.67;;;3.38;;
12124;SDS011;6126;57.908;16.490;2022-07-01T11:59:03;3.38;;;3.08;;
12124;SDS011;6126;57.908;16.490;2022-07-01T12:01:30;3.38;;;3.08;;
12124;SDS011;6126;57.908;16.490;2022-07-01T12:04:03;3.60;;;2.72;;
12124;SDS011;6126;57.908;16.490;2022-07-01T12:06:35;3.58;;;3.13;;
12124;SDS011;6126;57.908;16.490;2022-07-01T12:09:11;3.17;;;2.97;;
12124;SDS011;6126;57.908;16.490;2022-07-01T12:11:45;3.03;;;2.80;;
12124;SDS011;6126;57.908;16.490;2022-07-01T12:14:50;3.17;;;2.80;;
12124;SDS011;6126;57.908;16.490;2022-07-01T12:17:16;3.50;;;3.20;;
12124;SDS011;6126;57.908;16.490;2022-07-01T12:19:43;3.78;;;2.90;;
12124;SDS011;6126;57.908;16.490;2022-07-01T12:22:25;3.08;;;2.88;;
12124;SDS011;6126;57.908;16.490;2022-07-01T12:25:13;2.92;;;2.72;;
12124;SDS011;6126;57.908;16.490;2022-07-01T12:27:40;2.78;;;2.55;;
12124;SDS011;6126;57.908;16.490;2022-07-01T12:30:08;12.30;;;3.63;;
12124;SDS011;6126;57.908;16.490;2022-07-01T12:32:39;3.35;;;3.05;;
12124;SDS011;6126;57.908;16.490;2022-07-01T12:35:08;4.40;;;2.53;;
12124;SDS011;6126;57.908;16.490;2022-07-01T12:37:54;3.17;;;2.90;;
12124;SDS011;6126;57.908;16.490;2022-07-01T12:40:25;3.40;;;3.10;;
12124;SDS011;6126;57.908;16.490;2022-07-01T12:42:54;4.22;;;3.20;;
12124;SDS011;6126;57.908;16.490;2022-07-01T12:45:24;3.33;;;3.03;;
12124;SDS011;6126;57.908;16.490;2022-07-01T12:47:53;3.63;;;3.33;;
12124;SDS011;6126;57.908;16.490;2022-07-01T12:50:27;3.60;;;3.30;;
12124;SDS011;6126;57.908;16.490;2022-07-01T12:55:41;3.83;;;3.53;;
12124;SDS011;6126;57.908;16.490;2022-07-01T12:58:13;4.65;;;3.63;;
12124;SDS011;6126;57.908;16.490;2022-07-01T13:00:44;4.55;;;3.97;;
12124;SDS011;6126;57.908;16.490;2022-07-01T13:03:17;4.88;;;3.33;;
12124;SDS011;6126;57.908;16.490;2022-07-01T13:05:49;4.00;;;3.50;;
12124;SDS011;6126;57.908;16.490;2022-07-01T13:08:16;4.90;;;3.42;;
12124;SDS011;6126;57.908;16.490;2022-07-01T13:10:43;5.85;;;4.03;;
12124;SDS011;6126;57.908;16.490;2022-07-01T13:13:11;7.53;;;3.60;;
12124;SDS011;6126;57.908;16.490;2022-07-01T13:15:39;3.90;;;3.60;;
12124;SDS011;6126;57.908;16.490;2022-07-01T13:18:06;3.97;;;3.55;;
12124;SDS011;6126;57.908;16.490;2022-07-01T13:20:33;4.15;;;3.75;;
12124;SDS011;6126;57.908;16.490;2022-07-01T13:23:00;4.00;;;3.33;;
12124;SDS011;6126;57.908;16.490;2022-07-01T13:25:26;4.07;;;3.67;;
12124;SDS011;6126;57.908;16.490;2022-07-01T13:27:52;4.20;;;3.80;;
12124;SDS011;6126;57.908;16.490;2022-07-01T13:30:18;4.38;;;3.95;;
12124;SDS011;6126;57.908;16.490;2022-07-01T13:32:45;3.42;;;3.13;;
12124;SDS011;6126;57.908;16.490;2022-07-01T13:35:11;4.32;;;3.30;;
12124;SDS011;6126;57.908;16.490;2022-07-01T13:37:40;3.60;;;3.30;;
12124;SDS011;6126;57.908;16.490;2022-07-01T13:40:07;4.35;;;3.75;;
12124;SDS011;6126;57.908;16.490;2022-07-01T13:42:34;3.80;;;3.40;;
12124;SDS011;6126;57.908;16.490;2022-07-01T13:45:01;3.33;;;3.03;;
12124;SDS011;6126;57.908;16.490;2022-07-01T13:47:28;3.30;;;3.05;;
12124;SDS011;6126;57.908;16.490;2022-07-01T13:49:55;3.30;;;3.00;;
12124;SDS011;6126;57.908;16.490;2022-07-01T13:52:21;3.83;;;3.53;;
12124;SDS011;6126;57.908;16.490;2022-07-01T13:54:47;3.38;;;3.08;;
12124;SDS011;6126;57.908;16.490;2022-07-01T13:57:14;3.60;;;3.30;;
12124;SDS011;6126;57.908;16.490;2022-07-01T13:59:40;3.80;;;3.47;;
12124;SDS011;6126;57.908;16.490;2022-07-01T14:02:06;3.63;;;3.33;;
12124;SDS011;6126;57.908;16.490;2022-07-01T14:04:33;2.83;;;2.63;;
12124;SDS011;6126;57.908;16.490;2022-07-01T14:06:59;3.85;;;3.20;;
12124;SDS011;6126;57.908;16.490;2022-07-01T14:09:25;3.53;;;3.22;;
12124;SDS011;6126;57.908;16.490;2022-07-01T14:11:51;4.47;;;2.97;;
12124;SDS011;6126;57.908;16.490;2022-07-01T14:14:17;3.47;;;3.17;;
12124;SDS011;6126;57.908;16.490;2022-07-01T14:16:43;3.78;;;3.47;;
12124;SDS011;6126;57.908;16.490;2022-07-01T14:19:08;3.17;;;2.78;;
12124;SDS011;6126;57.908;16.490;2022-07-01T14:21:34;4.25;;;3.38;;
12124;SDS011;6126;57.908;16.490;2022-07-01T14:24:02;3.13;;;2.63;;
12124;SDS011;6126;57.908;16.490;2022-07-01T14:26:29;3.63;;;3.28;;
12124;SDS011;6126;57.908;16.490;2022-07-01T14:28:55;3.60;;;3.22;;
12124;SDS011;6126;57.908;16.490;2022-07-01T14:31:21;3.50;;;3.20;;
12124;SDS011;6126;57.908;16.490;2022-07-01T14:33:47;4.90;;;3.30;;
12124;SDS011;6126;57.908;16.490;2022-07-01T14:36:13;3.80;;;3.05;;
12124;SDS011;6126;57.908;16.490;2022-07-01T14:38:39;3.80;;;3.50;;
12124;SDS011;6126;57.908;16.490;2022-07-01T14:41:05;3.55;;;3.25;;
12124;SDS011;6126;57.908;16.490;2022-07-01T14:43:31;4.07;;;3.10;;
12124;SDS011;6126;57.908;16.490;2022-07-01T14:45:58;3.70;;;3.40;;
12124;SDS011;6126;57.908;16.490;2022-07-01T14:48:25;3.63;;;3.33;;
12124;SDS011;6126;57.908;16.490;2022-07-01T14:50:51;3.38;;;3.13;;
12124;SDS011;6126;57.908;16.490;2022-07-01T14:53:17;3.63;;;2.83;;
12124;SDS011;6126;57.908;16.490;2022-07-01T14:55:43;3.53;;;3.22;;
12124;SDS011;6126;57.908;16.490;2022-07-01T14:58:10;4.18;;;2.97;;
12124;SDS011;6126;57.908;16.490;2022-07-01T15:00:36;4.30;;;3.30;;
12124;SDS011;6126;57.908;16.490;2022-07-01T15:03:03;4.20;;;3.00;;
12124;SDS011;6126;57.908;16.490;2022-07-01T15:05:30;3.30;;;3.00;;
12124;SDS011;6126;57.908;16.490;2022-07-01T15:07:57;3.38;;;3.17;;
12124;SDS011;6126;57.908;16.490;2022-07-01T15:10:23;3.83;;;3.53;;